Alma, Mississippi
Current Conditions -  °F | °C
As of 9:53 AM on Saturday 20 Dec 2014 (Local Time) from KTUP Reporting Station
Clear Clear  
Wind Chill: 39°   Ceiling: Unl
Heat Index: 43°   Visibility: 10mi
Dew Point: 33°   Wind: 6mph
Humidity: 68%   Direction: 80°E
Pressure: 30.28"   Gusts: NA
Location:  34.433°N, 88.7018°W
Report Text: KTUP 201553Z 08005KT 10SM CLR 06/01 A3028 RMK AO2 SLP253 T00610006
Loading
Personal Weather Stations






























Interactive Weather Map New forecast layout! Learn more

10-Day Weather Forecast

Advertisements
Track Severe Weather on mobile